createdAt,value
2022-12-05T19:31:13.378Z,67.75
2022-12-05T19:33:42.833Z,68.00
2022-12-05T19:36:21.354Z,67.73
2022-12-05T19:38:50.538Z,67.90
2022-12-05T19:41:20.294Z,68.21
2022-12-05T19:43:47.946Z,68.23
2022-12-05T19:46:19.311Z,67.96
2022-12-05T19:48:47.594Z,68.33
2022-12-05T19:51:14.913Z,68.51
2022-12-05T19:53:44.175Z,68.43
2022-12-05T19:56:19.735Z,68.28
2022-12-05T19:58:47.624Z,68.29
2022-12-05T20:01:15.881Z,68.31
2022-12-05T20:03:44.411Z,68.15
2022-12-05T20:06:11.852Z,68.07
2022-12-05T20:08:39.893Z,68.03
2022-12-05T20:11:12.834Z,68.46
2022-12-05T20:13:48.498Z,68.31
2022-12-05T20:16:19.065Z,68.42
2022-12-05T20:18:46.405Z,68.52
2022-12-05T20:21:16.458Z,68.33
2022-12-05T20:23:43.481Z,68.34
2022-12-05T20:26:13.451Z,68.51
2022-12-05T20:28:40.823Z,68.33
2022-12-05T20:31:29.815Z,68.41
2022-12-05T20:33:57.122Z,68.49
2022-12-05T20:36:29.684Z,68.51
2022-12-05T20:38:59.437Z,68.66
2022-12-05T20:41:27.399Z,68.64
2022-12-05T20:43:57.375Z,68.66
2022-12-05T20:46:25.193Z,68.60
2022-12-05T20:48:53.965Z,68.67
2022-12-05T20:51:29.551Z,68.59
2022-12-05T20:53:58.751Z,68.73
2022-12-05T20:56:31.958Z,68.99
2022-12-05T20:59:01.535Z,69.26
2022-12-05T21:01:30.813Z,68.79
2022-12-05T21:03:58.142Z,68.68
2022-12-05T21:06:34.157Z,69.04
2022-12-05T21:09:02.354Z,68.87
2022-12-05T21:11:30.862Z,68.99
2022-12-05T21:14:05.262Z,68.99
2022-12-05T21:16:32.651Z,69.11
2022-12-05T21:19:00.191Z,68.76
2022-12-05T21:21:28.390Z,69.13
2022-12-05T21:23:57.514Z,69.08
2022-12-05T21:26:26.451Z,69.08
2022-12-05T21:28:54.130Z,69.23
2022-12-05T21:31:26.957Z,69.19
2022-12-05T21:33:57.482Z,69.07
2022-12-05T21:36:26.203Z,69.21
2022-12-05T21:38:56.257Z,69.04
2022-12-05T21:41:25.346Z,69.09
2022-12-05T21:43:55.459Z,69.08
2022-12-05T21:46:24.468Z,69.11
2022-12-05T21:48:51.863Z,69.16
2022-12-05T21:51:18.833Z,69.16
2022-12-05T21:53:45.940Z,69.28
2022-12-05T21:56:15.845Z,68.98
2022-12-05T21:58:44.445Z,69.17
2022-12-05T22:01:17.588Z,69.13
2022-12-05T22:03:45.160Z,68.99
2022-12-05T22:06:14.995Z,69.11
2022-12-05T22:08:42.181Z,69.22
2022-12-05T22:11:17.828Z,69.22
2022-12-05T22:13:44.926Z,69.45
2022-12-05T22:16:13.462Z,69.32
2022-12-05T22:18:41.295Z,69.33
2022-12-05T22:21:11.646Z,69.42
2022-12-05T22:23:39.269Z,69.17
2022-12-05T22:26:11.350Z,69.38
2022-12-05T22:28:38.774Z,69.43
2022-12-05T22:31:30.507Z,69.40
2022-12-05T22:34:09.511Z,69.54
2022-12-05T22:36:36.460Z,69.41
2022-12-05T22:39:03.668Z,69.43
2022-12-05T22:41:30.887Z,69.64
2022-12-05T22:44:00.268Z,69.61
2022-12-05T22:46:28.760Z,69.60
2022-12-05T22:48:56.273Z,69.47
2022-12-05T22:51:23.775Z,69.25
2022-12-05T22:53:51.918Z,69.41
2022-12-05T22:56:20.344Z,69.21
2022-12-05T22:58:48.136Z,69.74
2022-12-05T23:01:20.569Z,69.50
2022-12-05T23:03:49.881Z,69.48
2022-12-05T23:06:18.043Z,69.39
2022-12-05T23:08:48.068Z,69.50
2022-12-05T23:11:18.765Z,69.36
2022-12-05T23:13:46.099Z,69.54
2022-12-05T23:16:25.469Z,69.44
2022-12-05T23:18:56.150Z,69.45
2022-12-05T23:21:31.925Z,69.56
2022-12-05T23:24:01.443Z,69.44
2022-12-05T23:26:34.593Z,69.64
2022-12-05T23:29:01.874Z,69.85
2022-12-05T23:31:28.901Z,69.74
2022-12-05T23:34:01.304Z,69.97
2022-12-05T23:36:30.490Z,69.76
2022-12-05T23:38:57.405Z,69.76
2022-12-05T23:41:26.207Z,69.69
2022-12-05T23:43:53.980Z,69.67
2022-12-05T23:48:58.420Z,69.44
2022-12-05T23:51:31.010Z,69.81
2022-12-05T23:54:02.991Z,69.89
2022-12-05T23:56:35.857Z,70.19
2022-12-05T23:59:08.576Z,70.34
